Chandra B — WDI3303 — position and weather

sailwx.info

Track history (hours):
 
Tides and Currents Weather Stations Pressure Air Temp Water Temp Dewpoint Dewpoint Depression Visibility Wind Speed Wind Dir Waves Ship Positions

Chandra B

Owner: American petroleum & Transport, Inc., Port Jefferson, NY. More information available from US FCC via Universal Licensing System and Coast Guard Vessel Documentation Center.

Last reported at 2018-May-23 23:55 UTC. Time now 2018-May-24 00:06 UTC.
Position N 40°42' W 073°58'.

Length 23 m; draft 3.6 m.

Type: Tanker. MMSI: 367686920.

Date/timePositionNaut miles runAvg speedWind from/ knotsBaromVisibWave heightAir tempDewpointWater temp
2018-May-23 23:55N 40°42' W 073°58'2 4.6
2018-May-23 23:30N 40°42' W 074°01'0 0.5
2018-May-23 23:00N 40°42' W 074°01'1 0.7
2018-May-23 21:10N 40°41' W 074°03'0 1.6
2018-May-23 20:56N 40°41' W 074°02'0 0.5
2018-May-23 20:30N 40°41' W 074°02'1 0.4
2018-May-23 17:55N 40°40' W 074°01'0 0.0
2018-May-23 17:29N 40°40' W 074°01'0 0.0
2018-May-23 16:57N 40°40' W 074°01'0 0.0
2018-May-23 16:27N 40°40' W 074°01'0 0.0
2018-May-23 15:59N 40°40' W 074°01'0 0.0
2018-May-23 15:25N 40°40' W 074°01'0 0.1
2018-May-23 14:58N 40°40' W 074°01'0 0.0
2018-May-23 14:26N 40°40' W 074°01'1 0.3
2018-May-23 10:25N 40°42' W 074°02'2 0.9
2018-May-23 07:38N 40°42' W 073°58'0 0.1
2018-May-23 07:16N 40°42' W 073°58'2 6.1
2018-May-23 07:00N 40°42' W 074°00'1 2.5
2018-May-23 06:30N 40°40' W 074°01'0 0.0
2018-May-22 16:23N 40°40' W 074°01'3 5.0
2018-May-22 15:50N 40°43' W 073°59'1 0.1
2018-May-22 10:25N 40°43' W 073°58'1 2.1
2018-May-22 09:59N 40°42' W 073°58'0 0.1
2018-May-22 08:27N 40°42' W 073°58'0 0.1
2018-May-22 08:00N 40°42' W 073°58'0 0.1
2018-May-22 07:30N 40°42' W 073°58'1 2.6
2018-May-22 06:56N 40°42' W 074°00'1 3.3
2018-May-22 06:30N 40°40' W 074°01'0 0.1
2018-May-22 06:00N 40°40' W 074°01'0 0.0
2018-May-21 15:24N 40°40' W 074°01'2 4.5
2018-May-21 15:00N 40°42' W 074°01'0 0.0
2018-May-21 14:30N 40°42' W 074°01'2 0.5
2018-May-21 10:11N 40°43' W 073°58'1 4.6
2018-May-21 09:59N 40°42' W 073°58'0 0.0
2018-May-21 08:30N 40°42' W 073°58'0 0.1
2018-May-21 07:53N 40°42' W 073°58'1 2.8
2018-May-21 07:24N 40°42' W 074°00'2 4.2
2018-May-21 07:01N 40°40' W 074°01'0 0.0
2018-May-21 06:31N 40°40' W 074°01'1 0.0
2018-May-20 09:55N 40°41' W 074°01'0 0.0
2018-May-20 06:26N 40°41' W 074°01'1 0.0
2018-May-19 11:37N 40°40' W 074°01'0 0.0
2018-May-19 11:30N 40°40' W 074°01'0 0.0
2018-May-19 11:00N 40°40' W 074°01'0 0.0
2018-May-19 10:30N 40°40' W 074°01'3 3.3
2018-May-19 09:42N 40°42' W 073°58'0 0.1
2018-May-19 09:30N 40°42' W 073°58'0 0.1
2018-May-19 08:51N 40°42' W 073°58'0 0.1
2018-May-19 08:08N 40°42' W 073°58'0 0.0
2018-May-19 08:00N 40°42' W 073°58'0 0.1
2018-May-19 06:56N 40°42' W 073°58'2 4.1
2018-May-19 06:30N 40°41' W 074°01'1 0.1
2018-May-18 14:21N 40°40' W 074°01'1 1.1
2018-May-18 13:46N 40°41' W 074°01'4 1.1
2018-May-18 10:17N 40°44' W 073°58'2 6.5
2018-May-18 09:58N 40°42' W 073°58'0 0.3
2018-May-18 09:30N 40°42' W 073°58'0 0.1
2018-May-18 08:47N 40°42' W 073°58'0 0.1
2018-May-18 08:24N 40°42' W 073°58'0 0.1
2018-May-18 08:00N 40°42' W 073°58'0 0.1
2018-May-18 07:30N 40°42' W 073°58'1 1.9
2018-May-18 06:44N 40°42' W 074°00'1 5.6
2018-May-18 06:29N 40°40' W 074°01'0 0.0
2018-May-17 15:13N 40°40' W 074°01'1 5.3
2018-May-17 14:59N 40°42' W 074°01'2 0.5
2018-May-17 11:05N 40°43' W 074°01'0 5.9
2018-May-17 11:00N 40°43' W 074°01'2 0.4
2018-May-17 06:54N 40°42' W 074°00'1 0.1
2018-May-16 16:43N 40°41' W 074°01'1 6.7
2018-May-16 16:30N 40°42' W 074°01'1 0.4
2018-May-16 14:17N 40°43' W 074°01'2 4.1
2018-May-16 13:51N 40°43' W 073°59'1 0.2
2018-May-16 10:29N 40°43' W 073°58'1 2.1
2018-May-16 10:00N 40°42' W 073°58'0 0.1
2018-May-16 09:23N 40°42' W 073°58'0 0.1
2018-May-16 08:52N 40°42' W 073°58'0 0.1
2018-May-16 08:24N 40°42' W 073°58'0 0.1
2018-May-16 07:58N 40°42' W 073°58'0 0.0
2018-May-16 07:30N 40°42' W 073°58'2 4.3
2018-May-16 07:00N 40°41' W 074°01'1 1.5
2018-May-16 06:30N 40°40' W 074°01'0 0.1
2018-May-16 06:00N 40°40' W 074°01'0 0.0
2018-May-15 14:37N 40°40' W 074°01'0 1.1
2018-May-15 14:30N 40°40' W 074°01'3 6.3
2018-May-15 14:00N 40°44' W 074°01'0 0.1
2018-May-15 07:19N 40°43' W 074°01'2 5.8
2018-May-15 07:00N 40°41' W 074°01'0 0.1
2018-May-15 05:26N 40°41' W 074°01'2 4.9
2018-May-15 05:00N 40°42' W 073°58'0 0.1
2018-May-15 02:37N 40°42' W 073°58'0 0.2
2018-May-15 02:30N 40°42' W 073°58'0 0.3
2018-May-15 02:00N 40°42' W 073°58'0 0.0
2018-May-15 01:30N 40°42' W 073°58'2 0.3
2018-May-14 19:36N 40°44' W 073°58'1 7.8
2018-May-14 19:30N 40°43' W 073°58'3 6.7
2018-May-14 19:00N 40°41' W 074°01'1 1.0
2018-May-14 18:30N 40°40' W 074°01'0 0.0
2018-May-14 14:11N 40°40' W 074°01'0 1.9
2018-May-14 14:00N 40°40' W 074°01'1 0.5
2018-May-14 11:28N 40°41' W 074°01'2 4.8
2018-May-14 10:59N 40°43' W 073°58'0 0.1
2018-May-14 09:27N 40°43' W 073°58'1 0.5
2018-May-14 08:07N 40°42' W 073°58'0 0.0
2018-May-14 08:00N 40°42' W 073°58'0 0.0
2018-May-14 07:30N 40°42' W 073°58'3 5.0
2018-May-14 06:59N 40°41' W 074°01'0 0.6
2018-May-14 06:28N 40°40' W 074°01'  
Track history (hours):
 
Tides and Currents Weather Stations Pressure Air Temp Water Temp Dewpoint Dewpoint Depression Visibility Wind Speed Wind Dir Waves Ship Positions

Chandra B

Owner: American petroleum & Transport, Inc., Port Jefferson, NY. More information available from US FCC via Universal Licensing System and Coast Guard Vessel Documentation Center.

Last reported at 2018-May-23 23:55 UTC. Time now 2018-May-24 00:06 UTC.
Position N 40°42' W 073°58'.

Length 23 m; draft 3.6 m.

Type: Tanker. MMSI: 367686920.

Date/timePositionNaut miles runAvg speedWind from/ knotsBaromVisibWave heightAir tempDewpointWater temp
2018-May-23 23:55N 40°42' W 073°58'2 4.6
2018-May-23 23:30N 40°42' W 074°01'0 0.5
2018-May-23 23:00N 40°42' W 074°01'1 0.7
2018-May-23 21:10N 40°41' W 074°03'0 1.6
2018-May-23 20:56N 40°41' W 074°02'0 0.5
2018-May-23 20:30N 40°41' W 074°02'1 0.4
2018-May-23 17:55N 40°40' W 074°01'0 0.0
2018-May-23 17:29N 40°40' W 074°01'0 0.0
2018-May-23 16:57N 40°40' W 074°01'0 0.0
2018-May-23 16:27N 40°40' W 074°01'0 0.0
2018-May-23 15:59N 40°40' W 074°01'0 0.0
2018-May-23 15:25N 40°40' W 074°01'0 0.1
2018-May-23 14:58N 40°40' W 074°01'0 0.0
2018-May-23 14:26N 40°40' W 074°01'1 0.3
2018-May-23 10:25N 40°42' W 074°02'2 0.9
2018-May-23 07:38N 40°42' W 073°58'0 0.1
2018-May-23 07:16N 40°42' W 073°58'2 6.1
2018-May-23 07:00N 40°42' W 074°00'1 2.5
2018-May-23 06:30N 40°40' W 074°01'0 0.0
2018-May-22 16:23N 40°40' W 074°01'3 5.0
2018-May-22 15:50N 40°43' W 073°59'1 0.1
2018-May-22 10:25N 40°43' W 073°58'1 2.1
2018-May-22 09:59N 40°42' W 073°58'0 0.1
2018-May-22 08:27N 40°42' W 073°58'0 0.1
2018-May-22 08:00N 40°42' W 073°58'0 0.1
2018-May-22 07:30N 40°42' W 073°58'1 2.6
2018-May-22 06:56N 40°42' W 074°00'1 3.3
2018-May-22 06:30N 40°40' W 074°01'0 0.1
2018-May-22 06:00N 40°40' W 074°01'0 0.0
2018-May-21 15:24N 40°40' W 074°01'2 4.5
2018-May-21 15:00N 40°42' W 074°01'0 0.0
2018-May-21 14:30N 40°42' W 074°01'2 0.5
2018-May-21 10:11N 40°43' W 073°58'1 4.6
2018-May-21 09:59N 40°42' W 073°58'0 0.0
2018-May-21 08:30N 40°42' W 073°58'0 0.1
2018-May-21 07:53N 40°42' W 073°58'1 2.8
2018-May-21 07:24N 40°42' W 074°00'2 4.2
2018-May-21 07:01N 40°40' W 074°01'0 0.0
2018-May-21 06:31N 40°40' W 074°01'1 0.0
2018-May-20 09:55N 40°41' W 074°01'0 0.0
2018-May-20 06:26N 40°41' W 074°01'1 0.0
2018-May-19 11:37N 40°40' W 074°01'0 0.0
2018-May-19 11:30N 40°40' W 074°01'0 0.0
2018-May-19 11:00N 40°40' W 074°01'0 0.0
2018-May-19 10:30N 40°40' W 074°01'3 3.3
2018-May-19 09:42N 40°42' W 073°58'0 0.1
2018-May-19 09:30N 40°42' W 073°58'0 0.1
2018-May-19 08:51N 40°42' W 073°58'0 0.1
2018-May-19 08:08N 40°42' W 073°58'0 0.0
2018-May-19 08:00N 40°42' W 073°58'0 0.1
2018-May-19 06:56N 40°42' W 073°58'2 4.1
2018-May-19 06:30N 40°41' W 074°01'1 0.1
2018-May-18 14:21N 40°40' W 074°01'1 1.1
2018-May-18 13:46N 40°41' W 074°01'4 1.1
2018-May-18 10:17N 40°44' W 073°58'2 6.5
2018-May-18 09:58N 40°42' W 073°58'0 0.3
2018-May-18 09:30N 40°42' W 073°58'0 0.1
2018-May-18 08:47N 40°42' W 073°58'0 0.1
2018-May-18 08:24N 40°42' W 073°58'0 0.1
2018-May-18 08:00N 40°42' W 073°58'0 0.1
2018-May-18 07:30N 40°42' W 073°58'1 1.9
2018-May-18 06:44N 40°42' W 074°00'1 5.6
2018-May-18 06:29N 40°40' W 074°01'0 0.0
2018-May-17 15:13N 40°40' W 074°01'1 5.3
2018-May-17 14:59N 40°42' W 074°01'2 0.5
2018-May-17 11:05N 40°43' W 074°01'0 5.9
2018-May-17 11:00N 40°43' W 074°01'2 0.4
2018-May-17 06:54N 40°42' W 074°00'1 0.1
2018-May-16 16:43N 40°41' W 074°01'1 6.7
2018-May-16 16:30N 40°42' W 074°01'1 0.4
2018-May-16 14:17N 40°43' W 074°01'2 4.1
2018-May-16 13:51N 40°43' W 073°59'1 0.2
2018-May-16 10:29N 40°43' W 073°58'1 2.1
2018-May-16 10:00N 40°42' W 073°58'0 0.1
2018-May-16 09:23N 40°42' W 073°58'0 0.1
2018-May-16 08:52N 40°42' W 073°58'0 0.1
2018-May-16 08:24N 40°42' W 073°58'0 0.1
2018-May-16 07:58N 40°42' W 073°58'0 0.0
2018-May-16 07:30N 40°42' W 073°58'2 4.3
2018-May-16 07:00N 40°41' W 074°01'1 1.5
2018-May-16 06:30N 40°40' W 074°01'0 0.1
2018-May-16 06:00N 40°40' W 074°01'0 0.0
2018-May-15 14:37N 40°40' W 074°01'0 1.1
2018-May-15 14:30N 40°40' W 074°01'3 6.3
2018-May-15 14:00N 40°44' W 074°01'0 0.1
2018-May-15 07:19N 40°43' W 074°01'2 5.8
2018-May-15 07:00N 40°41' W 074°01'0 0.1
2018-May-15 05:26N 40°41' W 074°01'2 4.9
2018-May-15 05:00N 40°42' W 073°58'0 0.1
2018-May-15 02:37N 40°42' W 073°58'0 0.2
2018-May-15 02:30N 40°42' W 073°58'0 0.3
2018-May-15 02:00N 40°42' W 073°58'0 0.0
2018-May-15 01:30N 40°42' W 073°58'2 0.3
2018-May-14 19:36N 40°44' W 073°58'1 7.8
2018-May-14 19:30N 40°43' W 073°58'3 6.7
2018-May-14 19:00N 40°41' W 074°01'1 1.0
2018-May-14 18:30N 40°40' W 074°01'0 0.0
2018-May-14 14:11N 40°40' W 074°01'0 1.9
2018-May-14 14:00N 40°40' W 074°01'1 0.5
2018-May-14 11:28N 40°41' W 074°01'2 4.8
2018-May-14 10:59N 40°43' W 073°58'0 0.1
2018-May-14 09:27N 40°43' W 073°58'1 0.5
2018-May-14 08:07N 40°42' W 073°58'0 0.0
2018-May-14 08:00N 40°42' W 073°58'0 0.0
2018-May-14 07:30N 40°42' W 073°58'3 5.0
2018-May-14 06:59N 40°41' W 074°01'0 0.6
2018-May-14 06:28N 40°40' W 074°01'  

Dump ship's entire track history